createdAt,value
2022-12-22T00:00:07.860Z,11.10
2022-12-22T00:01:28.278Z,11.00
2022-12-22T00:02:49.247Z,11.10
2022-12-22T00:04:10.594Z,11.10
2022-12-22T00:05:31.047Z,11.00
2022-12-22T00:06:51.801Z,11.00
2022-12-22T00:08:12.677Z,10.90
2022-12-22T00:09:33.461Z,10.90
2022-12-22T00:10:54.857Z,10.90
2022-12-22T00:12:16.016Z,10.90
2022-12-22T00:13:37.105Z,10.90
2022-12-22T00:14:58.040Z,11.00
2022-12-22T00:16:20.217Z,11.00
2022-12-22T00:17:40.849Z,11.00
2022-12-22T00:19:01.648Z,11.00
2022-12-22T00:20:22.305Z,10.90
2022-12-22T00:21:43.015Z,10.90
2022-12-22T00:23:04.332Z,10.90
2022-12-22T00:24:24.707Z,10.80
2022-12-22T00:25:45.870Z,10.80
2022-12-22T00:27:07.972Z,10.90
2022-12-22T00:28:28.723Z,10.90
2022-12-22T00:29:49.507Z,10.90
2022-12-22T00:31:10.312Z,10.90
2022-12-22T00:32:36.765Z,11.00
2022-12-22T00:33:58.284Z,11.00
2022-12-22T00:35:22.069Z,11.00
2022-12-22T00:36:43.792Z,11.00
2022-12-22T00:38:13.268Z,11.00
2022-12-22T00:39:33.755Z,11.00
2022-12-22T00:40:54.514Z,11.00
2022-12-22T00:42:15.459Z,10.90
2022-12-22T00:43:36.384Z,10.90
2022-12-22T00:44:57.083Z,10.90
2022-12-22T00:46:18.450Z,10.90
2022-12-22T00:47:41.153Z,11.00
2022-12-22T00:49:02.045Z,11.00
2022-12-22T00:50:28.137Z,11.00
2022-12-22T00:51:49.144Z,11.00
2022-12-22T00:53:10.465Z,11.00
2022-12-22T00:54:31.249Z,11.00
2022-12-22T00:55:51.772Z,11.00
2022-12-22T00:57:16.903Z,11.00
2022-12-22T00:58:37.475Z,11.10
2022-12-22T00:59:58.573Z,11.10
2022-12-22T01:01:19.146Z,11.10
2022-12-22T01:02:41.546Z,11.00
2022-12-22T01:04:02.235Z,11.00
2022-12-22T01:05:23.004Z,11.10
2022-12-22T01:06:44.095Z,11.10
2022-12-22T01:08:05.401Z,11.10
2022-12-22T01:09:26.183Z,11.20
2022-12-22T01:10:46.978Z,11.10
2022-12-22T01:12:11.680Z,11.10
2022-12-22T01:13:32.603Z,11.10
2022-12-22T01:14:53.441Z,11.10
2022-12-22T01:16:14.214Z,11.10
2022-12-22T01:17:34.963Z,11.10
2022-12-22T01:18:57.137Z,11.20
2022-12-22T01:20:17.679Z,11.20
2022-12-22T01:21:38.354Z,11.20
2022-12-22T01:22:59.017Z,11.20
2022-12-22T01:24:19.643Z,11.20
2022-12-22T01:25:40.324Z,11.20
2022-12-22T01:27:00.959Z,11.20
2022-12-22T01:28:21.469Z,11.20
2022-12-22T01:29:42.335Z,11.20
2022-12-22T01:31:14.781Z,11.20
2022-12-22T01:32:35.223Z,11.30
2022-12-22T01:33:57.346Z,11.20
2022-12-22T01:35:19.998Z,11.20
2022-12-22T01:36:40.961Z,11.20
2022-12-22T01:38:01.500Z,11.20
2022-12-22T01:39:22.348Z,11.20
2022-12-22T01:40:43.140Z,11.30
2022-12-22T01:42:03.986Z,11.30
2022-12-22T01:43:27.579Z,11.30
2022-12-22T01:44:48.114Z,11.30
2022-12-22T01:46:22.371Z,11.20
2022-12-22T01:47:42.891Z,11.30
2022-12-22T01:49:08.420Z,11.30
2022-12-22T01:50:32.598Z,11.40
2022-12-22T01:51:53.389Z,11.40
2022-12-22T01:53:20.056Z,11.40
2022-12-22T01:54:41.425Z,11.40
2022-12-22T01:56:02.183Z,11.40
2022-12-22T01:57:22.838Z,11.40
2022-12-22T01:58:46.506Z,11.40
2022-12-22T02:00:08.403Z,11.40
2022-12-22T02:01:29.959Z,11.40
2022-12-22T02:02:51.074Z,11.40
2022-12-22T02:04:14.195Z,11.40
2022-12-22T02:05:40.634Z,11.40
2022-12-22T02:07:11.708Z,11.40
2022-12-22T02:08:38.114Z,11.40
2022-12-22T02:10:09.931Z,11.50
2022-12-22T02:11:34.495Z,11.50
2022-12-22T02:13:02.587Z,11.50
2022-12-22T02:14:30.809Z,11.50
2022-12-22T02:15:57.499Z,11.60
2022-12-22T02:17:24.291Z,11.50
2022-12-22T02:18:49.677Z,11.60
2022-12-22T02:20:30.678Z,11.70
2022-12-22T02:21:59.021Z,11.60
2022-12-22T02:23:34.606Z,11.60
2022-12-22T02:25:01.549Z,11.60
2022-12-22T02:26:27.563Z,11.70
2022-12-22T02:27:49.936Z,11.70
2022-12-22T02:29:11.180Z,11.70
2022-12-22T02:30:31.770Z,11.70
2022-12-22T02:31:52.797Z,11.70
2022-12-22T02:33:13.168Z,11.60
2022-12-22T02:34:34.013Z,11.60
2022-12-22T02:36:00.670Z,11.60
2022-12-22T02:37:28.143Z,11.70
2022-12-22T02:38:55.239Z,11.70
2022-12-22T02:40:18.363Z,11.60
2022-12-22T02:41:45.543Z,11.70
2022-12-22T02:43:11.135Z,11.70
2022-12-22T02:44:39.257Z,11.70
2022-12-22T02:46:04.951Z,11.70
2022-12-22T02:47:31.965Z,11.70
2022-12-22T02:48:57.382Z,11.70
2022-12-22T02:50:23.137Z,11.70
2022-12-22T02:51:47.315Z,11.70
2022-12-22T02:53:08.651Z,11.70
2022-12-22T02:54:29.862Z,11.70
2022-12-22T02:55:50.340Z,11.70
2022-12-22T02:57:15.680Z,11.70
2022-12-22T02:58:36.211Z,11.80
2022-12-22T02:59:56.849Z,11.80
2022-12-22T03:01:17.963Z,11.80
2022-12-22T03:02:38.663Z,11.90
2022-12-22T03:03:59.401Z,11.80
2022-12-22T03:05:20.281Z,11.80
2022-12-22T03:06:40.658Z,11.80
2022-12-22T03:08:06.207Z,11.70
2022-12-22T03:09:29.012Z,11.70
2022-12-22T03:10:49.730Z,11.70
2022-12-22T03:12:12.008Z,11.70
2022-12-22T03:13:32.645Z,11.70
2022-12-22T03:14:53.511Z,11.70
2022-12-22T03:16:14.216Z,11.70
2022-12-22T03:17:34.854Z,11.80
2022-12-22T03:18:55.622Z,11.80
2022-12-22T03:20:16.715Z,11.70
2022-12-22T03:21:37.470Z,11.70
2022-12-22T03:23:03.623Z,11.80
2022-12-22T03:24:24.335Z,11.70
2022-12-22T03:25:47.759Z,11.80
2022-12-22T03:27:08.573Z,11.80
2022-12-22T03:28:30.657Z,11.70
2022-12-22T03:29:51.181Z,11.70
2022-12-22T03:31:12.517Z,11.70
2022-12-22T03:32:33.113Z,11.70
2022-12-22T03:33:53.888Z,11.60
2022-12-22T03:35:14.886Z,11.60
2022-12-22T03:36:35.201Z,11.60
2022-12-22T03:37:56.010Z,11.60
2022-12-22T03:39:17.084Z,11.60
2022-12-22T03:40:37.850Z,11.60
2022-12-22T03:41:58.508Z,11.60
2022-12-22T03:43:19.390Z,11.70
2022-12-22T03:44:41.042Z,11.70
2022-12-22T03:46:02.426Z,11.70
2022-12-22T03:47:22.882Z,11.60
2022-12-22T03:48:44.305Z,11.50
2022-12-22T03:50:05.832Z,11.50
2022-12-22T03:51:26.249Z,11.40
2022-12-22T03:52:46.741Z,11.40
2022-12-22T03:54:08.419Z,11.30
2022-12-22T03:55:28.899Z,11.40
2022-12-22T03:56:49.903Z,11.40
2022-12-22T03:58:10.349Z,11.50
2022-12-22T03:59:31.123Z,11.50
2022-12-22T04:00:53.016Z,11.40
2022-12-22T04:02:13.871Z,11.50
2022-12-22T04:03:34.493Z,11.50
2022-12-22T04:04:55.282Z,11.50
2022-12-22T04:06:16.394Z,11.40
2022-12-22T04:07:36.985Z,11.40
2022-12-22T04:08:57.693Z,11.50
2022-12-22T04:10:18.554Z,11.40
2022-12-22T04:11:39.319Z,11.30
2022-12-22T04:13:00.249Z,11.30
2022-12-22T04:14:20.583Z,11.30
2022-12-22T04:15:41.233Z,11.30
2022-12-22T04:17:04.517Z,11.20
2022-12-22T04:18:24.977Z,11.20
2022-12-22T04:19:45.695Z,11.10
2022-12-22T04:21:06.281Z,11.20
2022-12-22T04:22:27.005Z,11.00
2022-12-22T04:23:47.961Z,11.10
2022-12-22T04:25:09.429Z,11.00
2022-12-22T04:26:31.161Z,11.10
2022-12-22T04:27:51.689Z,11.20
2022-12-22T04:29:12.369Z,11.20
2022-12-22T04:30:32.821Z,11.20
2022-12-22T04:31:53.722Z,11.20
2022-12-22T04:33:15.888Z,11.00
2022-12-22T04:34:36.500Z,11.00
2022-12-22T04:35:57.211Z,11.10
2022-12-22T04:37:18.127Z,11.00
2022-12-22T04:38:38.707Z,11.20
2022-12-22T04:39:59.243Z,11.20
2022-12-22T04:41:19.960Z,11.10
2022-12-22T04:42:40.658Z,11.10
2022-12-22T04:44:01.396Z,11.10
2022-12-22T04:45:21.934Z,11.20
2022-12-22T04:46:42.508Z,11.20
2022-12-22T04:48:03.218Z,11.20
2022-12-22T04:49:25.240Z,11.20
2022-12-22T04:50:45.850Z,11.30
2022-12-22T04:52:06.548Z,11.30
2022-12-22T04:53:28.346Z,11.30
2022-12-22T04:54:49.056Z,11.30
2022-12-22T04:56:10.231Z,11.30
2022-12-22T04:57:34.261Z,11.20
2022-12-22T04:58:57.534Z,11.20
2022-12-22T05:00:19.349Z,11.20
2022-12-22T05:01:40.144Z,11.10
2022-12-22T05:03:00.776Z,11.00
2022-12-22T05:04:23.844Z,11.10
2022-12-22T05:05:46.515Z,11.10
2022-12-22T05:07:07.280Z,11.00
2022-12-22T05:08:27.986Z,10.90
2022-12-22T05:09:48.610Z,10.90
2022-12-22T05:11:09.499Z,10.90
2022-12-22T05:12:30.185Z,10.80
2022-12-22T05:13:51.042Z,10.80
2022-12-22T05:15:12.026Z,10.80
2022-12-22T05:16:32.862Z,10.70
2022-12-22T05:17:53.546Z,10.70
2022-12-22T05:19:14.183Z,10.70
2022-12-22T05:20:36.057Z,10.80
2022-12-22T05:21:57.875Z,10.80
2022-12-22T05:23:18.210Z,10.70
2022-12-22T05:24:39.347Z,10.70
2022-12-22T05:25:59.989Z,10.70
2022-12-22T05:27:20.569Z,10.60
2022-12-22T05:28:42.281Z,10.50
2022-12-22T05:30:03.363Z,10.50
2022-12-22T05:31:25.192Z,10.50
2022-12-22T05:32:46.372Z,10.60
2022-12-22T05:34:07.034Z,10.50
2022-12-22T05:35:27.576Z,10.50
2022-12-22T05:36:48.583Z,10.50
2022-12-22T05:38:10.790Z,10.40
2022-12-22T05:39:31.471Z,10.50
2022-12-22T05:40:53.138Z,10.60
2022-12-22T05:42:16.069Z,10.50
2022-12-22T05:43:37.081Z,10.50
2022-12-22T05:44:57.906Z,10.50
2022-12-22T05:46:18.431Z,10.40
2022-12-22T05:47:39.637Z,10.40
2022-12-22T05:49:00.526Z,10.30
2022-12-22T05:50:22.684Z,10.40
2022-12-22T05:51:43.053Z,10.40
2022-12-22T05:53:03.851Z,10.40
2022-12-22T05:54:26.020Z,10.50
2022-12-22T05:55:46.503Z,10.50
2022-12-22T05:57:07.175Z,10.50
2022-12-22T05:58:28.103Z,10.50
2022-12-22T05:59:48.880Z,10.40
2022-12-22T06:01:09.675Z,10.30
2022-12-22T06:02:30.531Z,10.30
2022-12-22T06:03:56.155Z,10.30
2022-12-22T06:05:20.783Z,10.30
2022-12-22T06:06:41.253Z,10.30
2022-12-22T06:08:02.171Z,10.30
2022-12-22T06:09:23.172Z,10.30
2022-12-22T06:10:45.331Z,10.30
2022-12-22T06:12:06.375Z,10.20
2022-12-22T06:13:26.947Z,10.20
2022-12-22T06:14:47.759Z,10.10
2022-12-22T06:16:08.658Z,10.20
2022-12-22T06:17:29.380Z,10.20
2022-12-22T06:18:50.184Z,10.30
2022-12-22T06:20:11.796Z,10.30
2022-12-22T06:21:32.531Z,10.30
2022-12-22T06:22:53.163Z,10.30
2022-12-22T06:24:13.929Z,10.20
2022-12-22T06:25:34.558Z,10.30
2022-12-22T06:26:56.522Z,10.20
2022-12-22T06:28:17.404Z,10.20
2022-12-22T06:29:38.212Z,10.20
2022-12-22T06:30:59.005Z,10.20
2022-12-22T06:32:19.841Z,10.20
2022-12-22T06:33:41.397Z,10.20
2022-12-22T06:35:01.923Z,10.20
2022-12-22T06:36:22.957Z,10.20
2022-12-22T06:37:43.491Z,10.20
2022-12-22T06:39:04.496Z,10.20
2022-12-22T06:40:24.831Z,10.30
2022-12-22T06:41:45.360Z,10.20
2022-12-22T06:43:09.763Z,10.30
2022-12-22T06:44:31.134Z,10.30
2022-12-22T06:45:51.594Z,10.30
2022-12-22T06:47:12.512Z,10.30
2022-12-22T06:48:33.058Z,10.20
2022-12-22T06:49:53.808Z,10.10
2022-12-22T06:51:14.656Z,10.20
2022-12-22T06:52:35.666Z,10.20
2022-12-22T06:53:56.275Z,10.10
2022-12-22T06:55:16.767Z,10.20
2022-12-22T06:56:37.600Z,10.20
2022-12-22T06:57:58.770Z,10.20
2022-12-22T06:59:20.810Z,10.20
2022-12-22T07:00:41.890Z,10.20
2022-12-22T07:02:02.587Z,10.20
2022-12-22T07:03:23.554Z,10.10
2022-12-22T07:04:45.623Z,10.00
2022-12-22T07:06:07.386Z,10.10
2022-12-22T07:07:27.947Z,10.20
2022-12-22T07:08:49.106Z,10.20
2022-12-22T07:10:10.183Z,10.10
2022-12-22T07:11:30.760Z,10.20
2022-12-22T07:12:51.585Z,10.10
2022-12-22T07:14:12.346Z,10.10
2022-12-22T07:15:34.641Z,9.90
2022-12-22T07:16:55.112Z,9.90
2022-12-22T07:18:15.935Z,10.00
2022-12-22T07:19:37.077Z,10.00
2022-12-22T07:20:58.095Z,10.00
2022-12-22T07:22:22.909Z,9.90
2022-12-22T07:23:48.383Z,10.00
2022-12-22T07:25:09.641Z,9.90
2022-12-22T07:26:30.689Z,9.90
2022-12-22T07:27:50.916Z,9.90
2022-12-22T07:29:11.545Z,9.90
2022-12-22T07:30:33.857Z,9.90
2022-12-22T07:31:54.827Z,9.80
2022-12-22T07:33:15.585Z,9.90
2022-12-22T07:34:35.989Z,9.80
2022-12-22T07:36:05.449Z,9.80
2022-12-22T07:37:26.119Z,9.80
2022-12-22T07:38:48.961Z,9.70
2022-12-22T07:40:10.674Z,9.80
2022-12-22T07:41:31.096Z,9.70
2022-12-22T07:42:56.161Z,9.60
2022-12-22T07:44:17.213Z,9.50
2022-12-22T07:45:39.611Z,9.50
2022-12-22T07:47:00.260Z,9.50
2022-12-22T07:48:21.132Z,9.60
2022-12-22T07:49:41.833Z,9.50
2022-12-22T07:51:04.285Z,9.50
2022-12-22T07:52:24.979Z,9.50
2022-12-22T07:53:45.685Z,9.50
2022-12-22T07:55:08.104Z,9.40
2022-12-22T07:56:32.056Z,9.40
2022-12-22T07:57:53.739Z,9.50
2022-12-22T07:59:14.556Z,9.50
2022-12-22T08:00:35.200Z,9.50
2022-12-22T08:01:57.418Z,9.50
2022-12-22T08:03:17.954Z,9.50
2022-12-22T08:04:38.997Z,9.50
2022-12-22T08:05:59.469Z,9.50
2022-12-22T08:07:20.187Z,9.50
2022-12-22T08:08:40.719Z,9.40
2022-12-22T08:10:01.293Z,9.40
2022-12-22T08:11:21.810Z,9.40
2022-12-22T08:12:42.745Z,9.40
2022-12-22T08:14:03.690Z,9.50
2022-12-22T08:15:24.374Z,9.50
2022-12-22T08:16:44.845Z,9.50
2022-12-22T08:18:07.365Z,9.50
2022-12-22T08:19:27.848Z,9.50
2022-12-22T08:20:49.617Z,9.50
2022-12-22T08:22:10.120Z,9.50
2022-12-22T08:23:31.696Z,9.30
2022-12-22T08:24:52.187Z,9.40
2022-12-22T08:26:16.250Z,9.40
2022-12-22T08:27:41.441Z,9.30
2022-12-22T08:29:04.999Z,9.40
2022-12-22T08:30:25.754Z,9.40
2022-12-22T08:31:46.943Z,9.30
2022-12-22T08:33:09.182Z,9.30
2022-12-22T08:34:30.019Z,9.30
2022-12-22T08:35:50.393Z,9.30
2022-12-22T08:37:13.396Z,9.30
2022-12-22T08:38:34.876Z,9.40
2022-12-22T08:39:58.676Z,9.40
2022-12-22T08:41:19.383Z,9.40
2022-12-22T08:42:40.468Z,9.40
2022-12-22T08:44:01.280Z,9.30
2022-12-22T08:45:22.126Z,9.30
2022-12-22T08:46:42.891Z,9.40
2022-12-22T08:48:03.597Z,9.40
2022-12-22T08:49:25.998Z,9.40
2022-12-22T08:50:46.962Z,9.50
2022-12-22T08:52:10.545Z,9.50
2022-12-22T08:54:03.858Z,9.60
2022-12-22T08:55:15.510Z,9.60
2022-12-22T08:56:36.288Z,9.60
2022-12-22T08:57:56.548Z,9.50
2022-12-22T08:59:17.320Z,9.60
2022-12-22T09:00:38.178Z,9.70
2022-12-22T09:01:59.189Z,9.70
2022-12-22T09:03:20.326Z,9.70
2022-12-22T09:04:42.220Z,9.70
2022-12-22T09:06:02.910Z,9.80
2022-12-22T09:07:23.582Z,9.80
2022-12-22T09:08:44.306Z,9.80
2022-12-22T09:10:05.720Z,9.70
2022-12-22T09:11:26.489Z,9.80
2022-12-22T09:12:46.870Z,9.80
2022-12-22T09:14:09.250Z,9.80
2022-12-22T09:15:30.049Z,9.90
2022-12-22T09:16:50.924Z,9.90
2022-12-22T09:18:11.528Z,9.90
2022-12-22T09:19:32.160Z,9.90
2022-12-22T09:20:56.267Z,9.90
2022-12-22T09:22:21.740Z,9.90
2022-12-22T09:23:46.184Z,9.90
2022-12-22T09:25:07.765Z,10.00
2022-12-22T09:26:29.185Z,10.00
2022-12-22T09:27:49.661Z,9.90
2022-12-22T09:29:10.621Z,9.90
2022-12-22T09:30:30.911Z,10.00
2022-12-22T09:31:51.576Z,10.00
2022-12-22T09:33:12.257Z,10.10
2022-12-22T09:34:33.073Z,10.00
2022-12-22T09:35:53.816Z,10.00
2022-12-22T09:37:16.093Z,10.10
2022-12-22T09:38:37.084Z,10.10
2022-12-22T09:39:57.964Z,10.10
2022-12-22T09:41:20.877Z,10.20
2022-12-22T09:42:41.523Z,10.20
2022-12-22T09:44:03.538Z,10.20
2022-12-22T09:45:24.691Z,10.20
2022-12-22T09:46:45.323Z,10.10
2022-12-22T09:48:08.692Z,10.20
2022-12-22T09:49:29.051Z,10.10
2022-12-22T09:50:49.849Z,10.10
2022-12-22T09:52:24.031Z,10.20
2022-12-22T09:53:46.778Z,10.30
2022-12-22T09:55:14.426Z,10.30
2022-12-22T09:56:36.340Z,10.20
2022-12-22T09:57:57.216Z,10.30
2022-12-22T09:59:19.553Z,10.40
2022-12-22T10:00:40.035Z,10.40
2022-12-22T10:02:06.032Z,10.40
2022-12-22T10:03:33.430Z,10.40
2022-12-22T10:05:06.948Z,10.40
2022-12-22T10:06:34.167Z,10.50
2022-12-22T10:08:01.010Z,10.60
2022-12-22T10:11:05.488Z,10.70
2022-12-22T10:12:26.409Z,10.60
2022-12-22T10:13:47.055Z,10.60
2022-12-22T10:15:11.729Z,10.60
2022-12-22T10:16:34.730Z,10.70
2022-12-22T10:18:09.646Z,10.70
2022-12-22T10:19:30.230Z,10.70
2022-12-22T10:21:09.147Z,10.60
2022-12-22T10:22:31.441Z,10.60
2022-12-22T10:23:53.470Z,10.70
2022-12-22T10:26:00.573Z,10.60
2022-12-22T10:27:16.097Z,10.60
2022-12-22T10:28:39.049Z,10.60
2022-12-22T10:30:20.436Z,10.60
2022-12-22T10:31:58.115Z,10.70
2022-12-22T10:33:19.197Z,10.70
2022-12-22T10:34:59.046Z,10.70
2022-12-22T10:36:22.475Z,10.70
2022-12-22T10:37:42.979Z,10.70
2022-12-22T10:39:07.533Z,10.70
2022-12-22T10:40:28.464Z,10.70
2022-12-22T10:41:50.487Z,10.80
2022-12-22T10:43:18.645Z,10.80
2022-12-22T10:44:39.841Z,10.80
2022-12-22T10:46:01.379Z,10.80
2022-12-22T10:47:23.155Z,10.80
2022-12-22T10:48:43.602Z,10.80
2022-12-22T10:50:04.890Z,10.90
2022-12-22T10:51:25.466Z,11.00
2022-12-22T10:52:51.500Z,11.00
2022-12-22T10:54:29.504Z,11.00
2022-12-22T10:56:05.023Z,10.90
2022-12-22T10:57:31.383Z,10.90
2022-12-22T10:58:54.133Z,11.00
2022-12-22T11:00:26.583Z,11.00
2022-12-22T11:01:48.977Z,11.00
2022-12-22T11:03:11.713Z,10.90
2022-12-22T11:04:32.085Z,10.90
2022-12-22T11:05:52.824Z,10.80
2022-12-22T11:07:13.807Z,10.60
2022-12-22T11:08:34.496Z,10.50
2022-12-22T11:09:56.537Z,10.30
2022-12-22T11:11:27.687Z,10.30
2022-12-22T11:13:11.257Z,10.30
2022-12-22T11:14:39.625Z,10.30
2022-12-22T11:16:03.427Z,10.30
2022-12-22T11:17:30.127Z,10.40
2022-12-22T11:19:01.453Z,10.20
2022-12-22T11:20:34.979Z,9.90
2022-12-22T11:22:00.413Z,9.90
2022-12-22T11:23:27.069Z,9.90
2022-12-22T11:24:55.418Z,9.80
2022-12-22T11:26:23.368Z,9.80
2022-12-22T11:27:50.134Z,9.60
2022-12-22T11:29:20.135Z,9.60
2022-12-22T11:30:47.212Z,9.60
2022-12-22T11:32:19.554Z,9.70
2022-12-22T11:33:47.922Z,9.60
2022-12-22T11:35:13.138Z,9.50
2022-12-22T11:36:40.565Z,9.50
2022-12-22T11:38:09.443Z,9.40
2022-12-22T11:39:37.945Z,9.30
2022-12-22T11:41:04.598Z,9.10
2022-12-22T11:42:40.029Z,9.20
2022-12-22T11:44:11.032Z,9.30
2022-12-22T11:45:43.402Z,9.40
2022-12-22T11:47:12.475Z,9.40
2022-12-22T11:48:51.054Z,9.30
2022-12-22T11:50:58.389Z,9.30
2022-12-22T11:52:20.246Z,9.30
2022-12-22T11:54:04.069Z,9.30
2022-12-22T11:55:32.712Z,9.30
2022-12-22T11:56:59.551Z,9.40
2022-12-22T11:58:31.719Z,9.40
2022-12-22T12:00:00.757Z,9.30
2022-12-22T12:01:34.681Z,9.40
2022-12-22T12:03:18.999Z,9.40
2022-12-22T12:04:56.022Z,9.30
2022-12-22T12:06:41.904Z,9.30
2022-12-22T12:08:09.387Z,9.20
2022-12-22T12:09:38.472Z,9.30
2022-12-22T12:11:07.453Z,9.40
2022-12-22T12:12:34.012Z,9.50
2022-12-22T12:14:02.633Z,9.50
2022-12-22T12:15:30.339Z,9.60
2022-12-22T12:16:55.812Z,9.60
2022-12-22T12:18:30.179Z,9.60
2022-12-22T12:20:13.137Z,9.50
2022-12-22T12:21:40.249Z,9.60
2022-12-22T12:23:13.080Z,9.70
2022-12-22T12:24:46.199Z,9.60
2022-12-22T12:26:10.437Z,9.70
2022-12-22T12:27:45.838Z,9.70
2022-12-22T12:29:13.827Z,9.80
2022-12-22T12:30:38.896Z,9.80
2022-12-22T12:32:05.489Z,9.80
2022-12-22T12:33:36.307Z,9.90
2022-12-22T12:35:01.778Z,10.00
2022-12-22T12:36:24.619Z,9.90
2022-12-22T12:37:48.511Z,9.90
2022-12-22T12:39:13.359Z,10.00
2022-12-22T12:40:39.952Z,9.90
2022-12-22T12:42:05.538Z,9.90
2022-12-22T12:43:26.433Z,10.00
2022-12-22T12:44:48.440Z,10.10
2022-12-22T12:46:43.784Z,10.10
2022-12-22T12:48:40.792Z,10.00
2022-12-22T12:50:03.518Z,10.00
2022-12-22T12:51:46.540Z,9.90
2022-12-22T12:53:09.035Z,10.10
2022-12-22T12:54:39.868Z,10.10
2022-12-22T12:56:03.101Z,10.00
2022-12-22T12:57:28.446Z,10.10
2022-12-22T12:58:53.734Z,10.20
2022-12-22T13:00:48.771Z,10.20
2022-12-22T13:02:35.632Z,10.20
2022-12-22T13:04:05.171Z,10.30
2022-12-22T13:05:31.934Z,10.30
2022-12-22T13:06:53.248Z,10.20
2022-12-22T13:08:19.117Z,10.20
2022-12-22T13:10:17.268Z,10.30
2022-12-22T13:12:11.095Z,10.30
2022-12-22T13:13:45.173Z,10.30
2022-12-22T13:15:28.283Z,10.30
2022-12-22T13:16:50.267Z,10.40
2022-12-22T13:18:41.817Z,10.40
2022-12-22T13:20:10.952Z,10.30
2022-12-22T13:21:55.294Z,10.30
2022-12-22T13:23:16.184Z,10.30
2022-12-22T13:24:49.000Z,10.40
2022-12-22T13:26:10.853Z,10.40
2022-12-22T13:27:31.964Z,10.40
2022-12-22T13:28:56.240Z,10.30
2022-12-22T13:30:18.674Z,10.40
2022-12-22T13:31:42.251Z,10.40
2022-12-22T13:33:11.310Z,10.40
2022-12-22T13:35:04.373Z,10.40
2022-12-22T13:36:28.127Z,10.50
2022-12-22T13:37:50.085Z,10.50
2022-12-22T13:39:13.278Z,10.40
2022-12-22T13:40:41.141Z,10.50
2022-12-22T13:42:01.564Z,10.50
2022-12-22T13:43:22.255Z,10.50
2022-12-22T13:44:42.831Z,10.40
2022-12-22T13:46:03.503Z,10.50
2022-12-22T13:47:23.985Z,10.50
2022-12-22T13:48:47.331Z,10.60
2022-12-22T13:50:16.258Z,10.60
2022-12-22T13:51:37.763Z,10.60
2022-12-22T13:52:58.781Z,10.60
2022-12-22T13:54:24.091Z,10.60
2022-12-22T13:55:46.778Z,10.60
2022-12-22T13:57:16.994Z,10.60
2022-12-22T13:58:39.351Z,10.60
2022-12-22T13:59:59.980Z,10.60
2022-12-22T14:01:20.767Z,10.70
2022-12-22T14:02:41.330Z,10.70
2022-12-22T14:04:04.457Z,10.70
2022-12-22T14:05:30.769Z,10.60
2022-12-22T14:06:51.693Z,10.60
2022-12-22T14:08:12.567Z,10.60
2022-12-22T14:09:33.191Z,10.60
2022-12-22T14:10:54.378Z,10.50
2022-12-22T14:12:16.896Z,10.50
2022-12-22T14:13:37.993Z,10.60
2022-12-22T14:15:00.126Z,10.50
2022-12-22T14:16:20.493Z,10.50
2022-12-22T14:17:46.180Z,10.60
2022-12-22T14:19:13.696Z,10.50
2022-12-22T14:20:40.273Z,10.50
2022-12-22T14:22:03.949Z,10.50
2022-12-22T14:23:28.089Z,10.50
2022-12-22T14:24:50.579Z,10.50
2022-12-22T14:26:16.090Z,10.50
2022-12-22T14:27:38.653Z,10.50
2022-12-22T14:28:59.518Z,10.50
2022-12-22T14:30:21.444Z,10.50
2022-12-22T14:31:52.561Z,10.50
2022-12-22T14:33:20.098Z,10.50
2022-12-22T14:34:53.153Z,10.50
2022-12-22T14:36:15.987Z,10.50
2022-12-22T14:37:36.609Z,10.40
2022-12-22T14:39:05.399Z,10.40
2022-12-22T14:40:31.536Z,10.40
2022-12-22T14:41:53.292Z,10.40
2022-12-22T14:43:26.418Z,10.40
2022-12-22T14:44:47.837Z,10.40
2022-12-22T14:46:08.546Z,10.40
2022-12-22T14:47:29.232Z,10.40
2022-12-22T14:48:50.048Z,10.40
2022-12-22T14:50:17.257Z,10.40
2022-12-22T14:51:37.921Z,10.40
2022-12-22T14:52:59.965Z,10.30
2022-12-22T14:54:22.042Z,10.40
2022-12-22T14:55:42.904Z,10.30
2022-12-22T14:57:15.826Z,10.40
2022-12-22T14:58:39.796Z,10.40
2022-12-22T15:00:03.039Z,10.40
2022-12-22T15:01:25.690Z,10.30
2022-12-22T15:02:51.584Z,10.30
2022-12-22T15:04:17.544Z,10.30
2022-12-22T15:05:39.526Z,10.30
2022-12-22T15:07:37.255Z,10.20
2022-12-22T15:09:08.881Z,10.20
2022-12-22T15:10:35.872Z,10.20
2022-12-22T15:12:03.279Z,10.20
2022-12-22T15:13:24.737Z,10.20
2022-12-22T15:14:45.177Z,10.20
2022-12-22T15:16:05.808Z,10.20
2022-12-22T15:17:26.185Z,10.20
2022-12-22T15:18:48.061Z,10.20
2022-12-22T15:20:15.243Z,10.20
2022-12-22T15:21:37.100Z,10.20
2022-12-22T15:22:57.782Z,10.20
2022-12-22T15:24:18.928Z,10.30
2022-12-22T15:25:39.207Z,10.30
2022-12-22T15:26:59.746Z,10.30
2022-12-22T15:28:20.087Z,10.30
2022-12-22T15:29:40.726Z,10.30
2022-12-22T15:31:03.095Z,10.20
2022-12-22T15:32:24.395Z,10.20
2022-12-22T15:33:45.321Z,10.20
2022-12-22T15:35:15.711Z,10.20
2022-12-22T15:36:37.725Z,10.10
2022-12-22T15:37:58.636Z,10.20
2022-12-22T15:39:20.924Z,10.20
2022-12-22T15:40:42.198Z,10.20
2022-12-22T15:42:02.589Z,10.20
2022-12-22T15:43:55.800Z,10.20
2022-12-22T15:45:03.830Z,10.20
2022-12-22T15:46:24.941Z,10.20
2022-12-22T15:47:47.756Z,10.20
2022-12-22T15:49:12.851Z,10.20
2022-12-22T15:50:39.061Z,10.10
2022-12-22T15:52:02.835Z,10.10
2022-12-22T15:53:23.914Z,10.10
2022-12-22T15:54:44.650Z,10.20
2022-12-22T15:56:05.891Z,10.10
2022-12-22T15:57:26.552Z,10.10
2022-12-22T15:58:47.232Z,10.20
2022-12-22T16:00:10.673Z,10.30
2022-12-22T16:01:31.132Z,10.20
2022-12-22T16:02:52.005Z,10.20
2022-12-22T16:04:12.834Z,10.20
2022-12-22T16:05:33.869Z,10.20
2022-12-22T16:06:54.511Z,10.20
2022-12-22T16:08:18.622Z,10.20
2022-12-22T16:09:41.114Z,10.20
2022-12-22T16:11:01.739Z,10.30
2022-12-22T16:12:22.565Z,10.30
2022-12-22T16:13:43.794Z,10.20
2022-12-22T16:15:04.864Z,10.20
2022-12-22T16:16:25.284Z,10.20
2022-12-22T16:17:45.946Z,10.20
2022-12-22T16:19:08.006Z,10.20
2022-12-22T16:20:32.972Z,10.20
2022-12-22T16:21:56.076Z,10.20
2022-12-22T16:23:21.186Z,10.20
2022-12-22T16:24:43.746Z,10.20
2022-12-22T16:26:04.689Z,10.20
2022-12-22T16:27:25.048Z,10.20
2022-12-22T16:28:46.156Z,10.20
2022-12-22T16:30:07.717Z,10.20
2022-12-22T16:31:28.603Z,10.20
2022-12-22T16:32:49.006Z,10.30
2022-12-22T16:34:10.047Z,10.20
2022-12-22T16:35:30.991Z,10.30
2022-12-22T16:36:51.947Z,10.30
2022-12-22T16:38:18.237Z,10.30
2022-12-22T16:39:40.801Z,10.20
2022-12-22T16:41:01.296Z,10.30
2022-12-22T16:44:05.714Z,10.30
2022-12-22T16:45:30.515Z,10.30
2022-12-22T16:46:51.382Z,10.30
2022-12-22T16:48:13.879Z,10.30
2022-12-22T16:49:34.574Z,10.40
2022-12-22T16:50:55.152Z,10.40
2022-12-22T16:52:18.300Z,10.30
2022-12-22T16:53:38.928Z,10.30
2022-12-22T16:55:00.848Z,10.30
2022-12-22T16:56:23.014Z,10.40
2022-12-22T16:57:43.919Z,10.40
2022-12-22T16:59:04.404Z,10.30
2022-12-22T17:00:27.738Z,10.40
2022-12-22T17:01:51.903Z,10.40
2022-12-22T17:03:15.285Z,10.40
2022-12-22T17:04:36.121Z,10.40
2022-12-22T17:05:58.862Z,10.40
2022-12-22T17:07:19.869Z,10.50
2022-12-22T17:08:43.673Z,10.50
2022-12-22T17:10:06.478Z,10.60
2022-12-22T17:11:26.995Z,10.50
2022-12-22T17:12:49.737Z,10.60
2022-12-22T17:14:18.317Z,10.60
2022-12-22T17:15:38.903Z,10.60
2022-12-22T17:16:59.796Z,10.60
2022-12-22T17:18:22.266Z,10.60
2022-12-22T17:19:42.673Z,10.60
2022-12-22T17:21:03.316Z,10.60
2022-12-22T17:22:26.587Z,10.60
2022-12-22T17:23:49.907Z,10.60
2022-12-22T17:25:16.574Z,10.50
2022-12-22T17:26:37.216Z,10.50
2022-12-22T17:27:59.162Z,10.60
2022-12-22T17:29:22.196Z,10.60
2022-12-22T17:30:42.541Z,10.70
2022-12-22T17:32:03.526Z,10.70
2022-12-22T17:33:24.107Z,10.70
2022-12-22T17:34:46.983Z,10.70
2022-12-22T17:36:18.301Z,10.70
2022-12-22T17:37:39.168Z,10.80
2022-12-22T17:39:00.345Z,10.80
2022-12-22T17:40:22.718Z,10.90
2022-12-22T17:41:43.609Z,11.00
2022-12-22T17:43:03.917Z,10.90
2022-12-22T17:44:25.891Z,10.90
2022-12-22T17:45:47.270Z,11.00
2022-12-22T17:47:09.199Z,11.00
2022-12-22T17:48:29.623Z,11.10
2022-12-22T17:49:50.352Z,11.10
2022-12-22T17:51:19.000Z,11.10
2022-12-22T17:52:40.131Z,11.20
2022-12-22T17:54:00.635Z,11.20
2022-12-22T17:56:01.247Z,11.30
2022-12-22T17:57:12.863Z,11.30
2022-12-22T17:58:33.589Z,11.30
2022-12-22T17:59:54.520Z,11.20
2022-12-22T18:01:25.918Z,11.30
2022-12-22T18:02:46.823Z,11.30
2022-12-22T18:04:07.863Z,11.40
2022-12-22T18:05:30.220Z,11.40
2022-12-22T18:06:50.842Z,11.40